Fort Lauderdale, FL

7:25 PM EST on February 07, 2016 (GMT -0500)
Coretti Home | | Change Station
CLOSE
Current Station
Personal Weather Station
Location: Ft Lauderdale, FL
Elevation: 14 ft
Nearby Weather Stations

Elev 14 ft 26.18 °N, 80.16 °W | Updated 5 seconds ago

Clear
Clear
58.1 °F
Feels Like 58.1 °F
N
0.0
Wind Variable Wind from NW
Gusts 0.0 mph

Today
High -- | Low -- °F
--% Chance of Precip.
Yesterday
High -- | Low -- °F
Precip. -- in
Pressure 30.03 in
Visibility 10.0 miles
Clouds Clear
Dew Point 40 °F
Humidity 50%
Rainfall 0.11 in
Snow Depth Not available.
7:01 AM 6:07 PM
Waning Crescent, 1% visible
METAR KFXE 072353Z 28008KT 10SM CLR 14/01 A3002 RMK AO2 SLP168 T01440011 10172 20144 53012
Pressure 30.03 in
Visibility 10.0 miles
Clouds Clear
Dew Point 40 °F
Humidity 50%
Rainfall 0.11 in
Snow Depth Not available.
7:01 AM 6:07 PM
Waning Crescent, 1% visible
METAR KFXE 072353Z 28008KT 10SM CLR 14/01 A3002 RMK AO2 SLP168 T01440011 10172 20144 53012

10-Day Weather Forecast

Almanac

Astronomy

Feb. 07, 2016 Rise Set
Actual Time
Civil Twilight
Nautical Twilight
Astronomical Twilight
Moon
Length of Visible Light
Length of Day
Tomorrow will be .
, % of the Moon is Illuminated

Today's Extremes

State Highs State Lows

Community

WunderPhotos

Upload Photos

1,891,335 photos uploaded!

WunderBlog® & News

Nearby

Air Quality

  Air Quality AQ Index Pollutant
Not available.

Snow Depth

Station Depth Elevation

Earthquake Activity

City Distance Mag. Time & Date
Minimum magnitude displayed is 2.5.

Coastal Water Temperatures

Place Temperature

Stations

Nearby Weather Stations

Station Location Temp. Windchill Dew Point Humidity Wind Precip. Elev Updated Type
                   

Watches & Warnings

There are currently no watches in effect.